createdAt,value
2022-08-19T00:01:43.200Z,59.41
2022-08-19T00:04:13.922Z,59.40
2022-08-19T00:06:43.710Z,59.28
2022-08-19T00:09:14.155Z,59.50
2022-08-19T00:11:42.211Z,59.54
2022-08-19T00:14:13.408Z,59.54
2022-08-19T00:16:44.082Z,59.77
2022-08-19T00:19:12.230Z,59.62
2022-08-19T00:21:40.486Z,59.69
2022-08-19T00:24:09.027Z,59.58
2022-08-19T00:26:37.781Z,59.82
2022-08-19T00:29:09.929Z,59.55
2022-08-19T00:31:38.962Z,59.91
2022-08-19T00:34:06.685Z,59.74
2022-08-19T00:36:34.653Z,59.60
2022-08-19T00:39:03.088Z,59.71
2022-08-19T00:41:30.842Z,59.97
2022-08-19T00:44:00.571Z,59.80
2022-08-19T00:46:28.396Z,59.96
2022-08-19T00:48:58.642Z,59.92
2022-08-19T00:51:27.655Z,60.02
2022-08-19T00:53:56.442Z,59.98
2022-08-19T00:56:24.520Z,59.91
2022-08-19T00:58:52.233Z,59.85
2022-08-19T01:01:20.007Z,60.10
2022-08-19T01:03:57.615Z,59.94
2022-08-19T01:06:27.914Z,59.94
2022-08-19T01:08:56.363Z,60.09
2022-08-19T01:11:24.099Z,59.93
2022-08-19T01:13:54.394Z,60.19
2022-08-19T01:16:24.862Z,59.97
2022-08-19T01:18:53.310Z,59.98
2022-08-19T01:21:28.998Z,60.09
2022-08-19T01:23:58.131Z,60.32
2022-08-19T01:26:27.669Z,60.04
2022-08-19T01:29:00.706Z,60.39
2022-08-19T01:31:31.437Z,60.41
2022-08-19T01:34:01.760Z,60.48
2022-08-19T01:36:32.573Z,60.40
2022-08-19T01:39:02.784Z,60.40
2022-08-19T01:41:30.526Z,60.40
2022-08-19T01:44:09.907Z,60.56
2022-08-19T01:46:46.173Z,60.56
2022-08-19T01:49:14.051Z,60.58
2022-08-19T01:51:41.712Z,60.58
2022-08-19T01:54:12.256Z,60.45
2022-08-19T01:56:40.203Z,60.62
2022-08-19T01:59:12.539Z,60.50
2022-08-19T02:01:40.317Z,60.50
2022-08-19T02:04:08.687Z,60.59
2022-08-19T02:06:36.874Z,60.40
2022-08-19T02:09:07.305Z,60.37
2022-08-19T02:11:38.501Z,60.48
2022-08-19T02:14:09.060Z,60.42
2022-08-19T02:16:37.878Z,60.33
2022-08-19T02:19:06.142Z,60.28
2022-08-19T02:21:34.828Z,60.26
2022-08-19T02:24:02.703Z,60.53
2022-08-19T02:26:30.615Z,60.47
2022-08-19T02:28:59.737Z,60.30
2022-08-19T02:31:29.727Z,60.25
2022-08-19T02:33:58.226Z,60.33
2022-08-19T02:36:27.142Z,60.28
2022-08-19T02:38:55.517Z,60.22
2022-08-19T02:41:27.273Z,60.22
2022-08-19T02:44:29.421Z,60.22
2022-08-19T02:46:45.839Z,60.15
2022-08-19T02:49:15.963Z,60.16
2022-08-19T02:51:45.689Z,60.26
2022-08-19T02:54:14.795Z,60.21
2022-08-19T02:56:43.462Z,60.20
2022-08-19T02:59:12.752Z,60.14
2022-08-19T03:01:42.996Z,60.32
2022-08-19T03:04:14.227Z,60.31
2022-08-19T03:06:44.194Z,60.11
2022-08-19T03:09:12.402Z,60.14
2022-08-19T03:11:40.186Z,60.10
2022-08-19T03:14:09.779Z,60.24
2022-08-19T03:16:43.888Z,60.20
2022-08-19T03:19:13.199Z,60.27
2022-08-19T03:21:40.932Z,60.13
2022-08-19T03:24:10.534Z,60.22
2022-08-19T03:26:41.386Z,60.21
2022-08-19T03:29:11.371Z,60.06
2022-08-19T03:31:52.863Z,60.07
2022-08-19T03:34:27.322Z,60.18
2022-08-19T03:36:56.463Z,60.15
2022-08-19T03:39:25.381Z,60.20
2022-08-19T03:42:31.844Z,60.21
2022-08-19T03:44:46.659Z,60.19
2022-08-19T03:47:16.951Z,60.17
2022-08-19T03:49:46.409Z,60.30
2022-08-19T03:52:15.154Z,60.16
2022-08-19T03:54:42.956Z,60.16
2022-08-19T04:00:51.705Z,60.21
2022-08-19T04:03:19.949Z,60.28
2022-08-19T04:05:49.566Z,60.08
2022-08-19T04:08:21.289Z,60.34
2022-08-19T04:10:50.054Z,60.22
2022-08-19T04:13:19.197Z,60.30
2022-08-19T04:15:48.360Z,60.20
2022-08-19T04:18:16.366Z,60.27
2022-08-19T04:20:45.541Z,60.25
2022-08-19T04:23:15.796Z,60.29
2022-08-19T04:25:46.189Z,60.33
2022-08-19T04:28:14.751Z,60.17
2022-08-19T04:30:44.215Z,60.19
2022-08-19T04:33:13.133Z,60.13
2022-08-19T04:35:43.133Z,60.12
2022-08-19T04:38:11.870Z,60.24
2022-08-19T04:41:01.532Z,60.26
2022-08-19T04:43:29.490Z,60.14
2022-08-19T04:46:01.126Z,60.11
2022-08-19T04:48:28.934Z,60.10
2022-08-19T04:50:59.419Z,60.06
2022-08-19T04:53:29.526Z,60.09
2022-08-19T04:55:59.543Z,60.22
2022-08-19T04:58:28.895Z,60.23
2022-08-19T05:00:56.825Z,59.96
2022-08-19T05:03:27.619Z,60.12
2022-08-19T05:05:58.150Z,60.01
2022-08-19T05:08:31.313Z,60.08
2022-08-19T05:11:02.321Z,59.99
2022-08-19T05:13:30.183Z,60.19
2022-08-19T05:16:00.826Z,60.16
2022-08-19T05:18:45.976Z,60.11
2022-08-19T05:21:33.960Z,60.15
2022-08-19T05:24:02.188Z,60.12
2022-08-19T05:26:31.221Z,60.20
2022-08-19T05:28:58.898Z,60.46
2022-08-19T05:31:28.196Z,60.10
2022-08-19T05:33:56.901Z,60.19
2022-08-19T05:36:24.595Z,60.13
2022-08-19T05:38:53.738Z,60.21
2022-08-19T05:41:30.309Z,60.13
2022-08-19T05:44:00.101Z,60.13
2022-08-19T05:46:28.313Z,60.21
2022-08-19T05:48:57.444Z,60.23
2022-08-19T05:51:28.910Z,60.25
2022-08-19T05:53:57.207Z,60.31
2022-08-19T05:56:24.891Z,60.39
2022-08-19T05:58:54.091Z,60.18
2022-08-19T06:01:23.155Z,60.37
2022-08-19T06:03:50.799Z,60.42
2022-08-19T06:06:18.927Z,60.29
2022-08-19T06:08:51.660Z,60.42
2022-08-19T06:11:24.670Z,60.35
2022-08-19T06:13:59.857Z,60.44
2022-08-19T06:16:32.693Z,60.49
2022-08-19T06:19:02.955Z,60.50
2022-08-19T06:21:32.413Z,60.40
2022-08-19T06:24:00.492Z,60.41
2022-08-19T06:26:29.110Z,60.41
2022-08-19T06:28:57.058Z,60.30
2022-08-19T06:31:34.671Z,60.38
2022-08-19T06:34:04.115Z,60.32
2022-08-19T06:36:34.885Z,60.39
2022-08-19T06:39:04.559Z,60.47
2022-08-19T06:41:32.842Z,60.25
2022-08-19T06:44:00.639Z,60.30
2022-08-19T06:46:29.789Z,60.25
2022-08-19T06:49:01.905Z,60.39
2022-08-19T06:53:59.602Z,60.36
2022-08-19T06:56:34.698Z,60.46
2022-08-19T06:59:04.200Z,60.47
2022-08-19T07:01:38.386Z,60.43
2022-08-19T07:04:07.388Z,60.71
2022-08-19T07:06:44.445Z,60.55
2022-08-19T07:09:14.703Z,60.83
2022-08-19T07:11:47.872Z,60.73
2022-08-19T07:14:19.551Z,60.87
2022-08-19T07:16:52.420Z,60.81
2022-08-19T07:19:20.842Z,60.90
2022-08-19T07:21:49.785Z,60.65
2022-08-19T07:24:19.429Z,60.81
2022-08-19T07:26:51.865Z,60.84
2022-08-19T07:29:20.414Z,61.03
2022-08-19T07:31:56.946Z,60.87
2022-08-19T07:34:26.186Z,61.01
2022-08-19T07:36:54.722Z,61.04
2022-08-19T07:39:26.002Z,61.09
2022-08-19T07:41:54.525Z,61.25
2022-08-19T07:44:22.364Z,61.34
2022-08-19T07:46:55.137Z,61.49
2022-08-19T07:49:23.529Z,61.49
2022-08-19T07:51:53.786Z,61.49
2022-08-19T07:54:23.042Z,61.74
2022-08-19T07:56:52.503Z,61.68
2022-08-19T07:59:21.593Z,61.69
2022-08-19T08:01:51.099Z,61.88
2022-08-19T08:04:38.286Z,61.74
2022-08-19T08:07:23.519Z,61.75
2022-08-19T08:09:51.323Z,62.02
2022-08-19T08:12:34.200Z,62.07
2022-08-19T08:15:12.622Z,62.13
2022-08-19T08:17:49.821Z,62.18
2022-08-19T08:20:21.787Z,62.04
2022-08-19T08:23:07.687Z,62.25
2022-08-19T08:25:36.662Z,62.31
2022-08-19T08:28:05.179Z,62.43
2022-08-19T08:30:35.399Z,62.35
2022-08-19T08:33:03.113Z,62.45
2022-08-19T08:35:32.357Z,62.41
2022-08-19T08:38:00.128Z,62.46
2022-08-19T08:40:31.727Z,62.46
2022-08-19T08:43:06.087Z,62.38
2022-08-19T08:45:53.566Z,62.32
2022-08-19T08:48:26.789Z,62.58
2022-08-19T08:50:58.443Z,62.31
2022-08-19T08:53:29.269Z,62.33
2022-08-19T08:55:57.578Z,62.37
2022-08-19T08:58:32.911Z,62.33
2022-08-19T09:01:00.626Z,62.41
2022-08-19T09:03:31.657Z,62.45
2022-08-19T09:06:04.848Z,62.49
2022-08-19T09:08:49.509Z,62.56
2022-08-19T09:11:42.219Z,62.65
2022-08-19T09:14:47.398Z,62.49
2022-08-19T09:17:10.769Z,62.67
2022-08-19T09:19:51.266Z,62.69
2022-08-19T09:22:25.683Z,62.70
2022-08-19T09:24:56.562Z,62.80
2022-08-19T09:27:35.626Z,62.71
2022-08-19T09:30:14.098Z,62.94
2022-08-19T09:32:43.250Z,62.71
2022-08-19T09:35:12.020Z,62.72
2022-08-19T09:37:41.245Z,62.78
2022-08-19T09:40:12.545Z,62.79
2022-08-19T09:42:49.943Z,62.91
2022-08-19T09:45:21.413Z,62.75
2022-08-19T09:47:49.907Z,62.63
2022-08-19T09:50:19.063Z,62.74
2022-08-19T09:52:55.659Z,62.82
2022-08-19T09:55:31.639Z,62.71
2022-08-19T09:58:02.080Z,62.82
2022-08-19T10:00:29.825Z,62.70
2022-08-19T10:02:57.507Z,62.77
2022-08-19T10:05:43.017Z,62.62
2022-08-19T10:08:13.304Z,62.72
2022-08-19T10:10:44.122Z,62.69
2022-08-19T10:13:14.381Z,62.63
2022-08-19T10:15:47.321Z,62.58
2022-08-19T10:18:18.694Z,62.72
2022-08-19T10:20:51.290Z,62.66
2022-08-19T10:23:22.390Z,62.66
2022-08-19T10:25:50.870Z,62.41
2022-08-19T10:28:19.059Z,62.60
2022-08-19T10:30:47.755Z,62.36
2022-08-19T10:33:27.091Z,62.40
2022-08-19T10:36:04.361Z,62.52
2022-08-19T10:38:34.873Z,62.57
2022-08-19T10:41:09.434Z,62.39
2022-08-19T10:43:39.181Z,62.52
2022-08-19T10:46:09.534Z,62.34
2022-08-19T10:48:42.162Z,62.54
2022-08-19T10:51:27.712Z,62.34
2022-08-19T10:53:57.352Z,62.41
2022-08-19T10:56:43.629Z,62.50
2022-08-19T10:59:14.625Z,62.49
2022-08-19T11:01:44.336Z,62.24
2022-08-19T11:04:14.546Z,62.32
2022-08-19T11:06:44.456Z,62.51
2022-08-19T11:09:13.619Z,62.27
2022-08-19T11:11:42.357Z,62.28
2022-08-19T11:14:11.934Z,62.51
2022-08-19T11:16:40.354Z,62.38
2022-08-19T11:19:10.210Z,62.11
2022-08-19T11:21:41.450Z,62.36
2022-08-19T11:24:12.212Z,62.41
2022-08-19T11:26:42.306Z,62.43
2022-08-19T11:29:13.796Z,62.46
2022-08-19T11:31:43.579Z,62.10
2022-08-19T11:34:14.654Z,62.27
2022-08-19T11:36:45.030Z,62.11
2022-08-19T11:39:14.781Z,62.26
2022-08-19T11:41:44.195Z,62.13
2022-08-19T11:44:12.298Z,62.31
2022-08-19T11:46:40.352Z,62.42
2022-08-19T11:49:13.775Z,62.28
2022-08-19T11:51:43.982Z,62.34
2022-08-19T11:54:13.724Z,62.13
2022-08-19T11:56:43.643Z,62.07
2022-08-19T11:59:14.781Z,62.23
2022-08-19T12:01:43.677Z,62.12
2022-08-19T12:04:12.616Z,61.99
2022-08-19T12:06:42.647Z,62.07
2022-08-19T12:09:12.681Z,62.00
2022-08-19T12:11:41.445Z,62.23
2022-08-19T12:14:14.703Z,62.35
2022-08-19T12:16:52.374Z,62.31
2022-08-19T12:19:22.191Z,62.48
2022-08-19T12:21:51.136Z,62.47
2022-08-19T12:24:23.864Z,62.20
2022-08-19T12:26:53.510Z,62.10
2022-08-19T12:29:30.634Z,62.27
2022-08-19T12:32:02.243Z,62.16
2022-08-19T12:34:33.014Z,62.12
2022-08-19T12:37:03.887Z,62.21
2022-08-19T12:39:32.486Z,61.99
2022-08-19T12:42:00.626Z,62.19
2022-08-19T12:44:32.043Z,62.41
2022-08-19T12:47:01.697Z,62.33
2022-08-19T12:49:54.491Z,62.12
2022-08-19T12:52:23.357Z,62.33
2022-08-19T12:54:54.604Z,62.23
2022-08-19T12:57:24.014Z,62.38
2022-08-19T13:00:05.121Z,62.33
2022-08-19T13:02:33.180Z,62.49
2022-08-19T13:05:09.170Z,62.76
2022-08-19T13:07:38.189Z,62.44
2022-08-19T13:10:07.130Z,62.76
2022-08-19T13:12:34.900Z,62.41
2022-08-19T13:15:11.118Z,62.53
2022-08-19T13:17:41.057Z,62.83
2022-08-19T13:20:10.301Z,62.61
2022-08-19T13:22:38.683Z,62.81
2022-08-19T13:25:08.103Z,62.50
2022-08-19T13:27:36.147Z,62.96
2022-08-19T13:30:24.604Z,62.70
2022-08-19T13:33:09.947Z,63.02
2022-08-19T13:35:37.873Z,63.17
2022-08-19T13:38:06.398Z,63.15
2022-08-19T13:40:41.167Z,63.19
2022-08-19T13:43:13.608Z,63.39
2022-08-19T13:45:53.554Z,63.41
2022-08-19T13:48:21.331Z,63.40
2022-08-19T13:50:49.305Z,63.02
2022-08-19T13:53:18.710Z,62.89
2022-08-19T13:55:47.502Z,62.71
2022-08-19T13:58:15.419Z,62.90
2022-08-19T14:00:46.063Z,62.89
2022-08-19T14:03:15.375Z,62.90
2022-08-19T14:05:43.123Z,62.67
2022-08-19T14:08:11.266Z,63.17
2022-08-19T14:10:38.994Z,63.18
2022-08-19T14:13:06.727Z,63.23
2022-08-19T14:15:34.507Z,63.06
2022-08-19T14:18:02.210Z,63.10
2022-08-19T14:20:31.208Z,63.28
2022-08-19T14:23:00.273Z,63.37
2022-08-19T14:25:30.465Z,62.95
2022-08-19T14:27:58.811Z,62.98
2022-08-19T14:30:29.202Z,62.74
2022-08-19T14:32:57.703Z,62.81
2022-08-19T14:35:25.650Z,62.78
2022-08-19T14:37:56.497Z,62.31
2022-08-19T14:40:27.551Z,62.47
2022-08-19T14:43:00.338Z,62.07
2022-08-19T14:45:29.706Z,62.06
2022-08-19T14:47:57.752Z,62.31
2022-08-19T14:50:25.447Z,62.45
2022-08-19T14:53:00.893Z,62.46
2022-08-19T14:55:28.734Z,62.30
2022-08-19T14:57:56.663Z,62.18
2022-08-19T15:00:26.063Z,61.90
2022-08-19T15:02:55.516Z,61.93
2022-08-19T15:05:23.570Z,61.80
2022-08-19T15:07:51.387Z,61.96
2022-08-19T15:10:20.565Z,62.14
2022-08-19T15:12:51.744Z,62.11
2022-08-19T15:15:20.106Z,62.03
2022-08-19T15:17:48.399Z,61.45
2022-08-19T15:20:18.257Z,61.44
2022-08-19T15:22:46.182Z,61.73
2022-08-19T15:25:15.923Z,61.22
2022-08-19T15:27:44.972Z,61.63
2022-08-19T15:30:13.704Z,61.49
2022-08-19T15:32:41.424Z,61.60
2022-08-19T15:35:09.538Z,61.08
2022-08-19T15:37:37.853Z,61.15
2022-08-19T15:40:07.494Z,61.27
2022-08-19T15:42:37.737Z,61.12
2022-08-19T15:45:09.971Z,61.20
2022-08-19T15:47:38.423Z,61.23
2022-08-19T15:50:10.750Z,61.31
2022-08-19T15:52:45.031Z,61.02
2022-08-19T15:55:33.254Z,60.96
2022-08-19T15:58:28.933Z,61.06
2022-08-19T16:01:16.669Z,61.43
2022-08-19T16:04:05.452Z,61.23
2022-08-19T16:06:41.754Z,61.10
2022-08-19T16:09:09.518Z,60.85
2022-08-19T16:11:39.636Z,61.03
2022-08-19T16:14:09.322Z,61.37
2022-08-19T16:16:39.418Z,60.92
2022-08-19T16:19:12.196Z,60.97
2022-08-19T16:21:41.552Z,61.17
2022-08-19T16:24:13.002Z,61.19
2022-08-19T16:26:41.911Z,61.07
2022-08-19T16:29:13.025Z,61.15
2022-08-19T16:31:44.386Z,60.74
2022-08-19T16:34:13.204Z,60.99
2022-08-19T16:36:42.038Z,60.86
2022-08-19T16:39:10.906Z,60.69
2022-08-19T16:41:39.171Z,60.76
2022-08-19T16:44:07.327Z,60.66
2022-08-19T16:46:35.535Z,61.08
2022-08-19T16:49:05.449Z,61.31
2022-08-19T16:51:33.791Z,61.37
2022-08-19T16:54:03.364Z,61.33
2022-08-19T16:56:31.231Z,62.16
2022-08-19T16:58:59.828Z,61.56
2022-08-19T17:01:28.392Z,62.41
2022-08-19T17:03:56.375Z,61.88
2022-08-19T17:06:28.197Z,62.11
2022-08-19T17:08:58.361Z,62.45
2022-08-19T17:11:27.254Z,63.11
2022-08-19T17:13:56.793Z,62.87
2022-08-19T17:16:28.885Z,63.01
2022-08-19T17:18:58.796Z,63.22
2022-08-19T17:21:29.815Z,63.79
2022-08-19T17:23:58.333Z,64.28
2022-08-19T17:26:27.685Z,63.57
2022-08-19T17:28:57.679Z,64.05
2022-08-19T17:31:28.044Z,63.75
2022-08-19T17:33:56.174Z,63.69
2022-08-19T17:36:26.370Z,63.41
2022-08-19T17:38:56.510Z,63.40
2022-08-19T17:41:24.752Z,64.00
2022-08-19T17:43:52.631Z,64.12
2022-08-19T17:46:20.501Z,63.70
2022-08-19T17:48:52.787Z,63.62
2022-08-19T17:51:24.537Z,63.60
2022-08-19T17:53:54.412Z,63.50
2022-08-19T17:56:24.805Z,63.31
2022-08-19T17:59:00.220Z,63.78
2022-08-19T18:01:35.486Z,63.53
2022-08-19T18:04:18.894Z,63.84
2022-08-19T18:06:53.588Z,63.42
2022-08-19T18:09:23.781Z,63.32
2022-08-19T18:11:54.154Z,63.55
2022-08-19T18:14:23.051Z,63.81
2022-08-19T18:16:51.261Z,63.87
2022-08-19T18:19:18.962Z,63.45
2022-08-19T18:21:47.042Z,63.26
2022-08-19T18:24:15.307Z,63.24
2022-08-19T18:26:43.003Z,63.48
2022-08-19T18:29:13.411Z,63.38
2022-08-19T18:31:42.333Z,63.24
2022-08-19T18:34:10.537Z,62.87
2022-08-19T18:36:53.432Z,63.09
2022-08-19T18:39:39.311Z,62.62
2022-08-19T18:42:33.143Z,63.21
2022-08-19T18:45:19.972Z,63.05
2022-08-19T18:48:04.852Z,62.81
2022-08-19T18:50:32.851Z,62.95
2022-08-19T18:53:01.783Z,62.88
2022-08-19T18:55:29.503Z,62.76
2022-08-19T18:57:57.289Z,63.02
2022-08-19T19:00:26.339Z,62.79
2022-08-19T19:02:54.636Z,63.03
2022-08-19T19:05:23.355Z,62.72
2022-08-19T19:07:53.047Z,62.99
2022-08-19T19:10:20.823Z,62.99
2022-08-19T19:12:49.938Z,63.11
2022-08-19T19:15:18.771Z,62.76
2022-08-19T19:17:47.853Z,62.99
2022-08-19T19:20:16.118Z,62.94
2022-08-19T19:22:43.922Z,63.00
2022-08-19T19:25:11.775Z,63.41
2022-08-19T19:27:40.320Z,63.12
2022-08-19T19:30:09.662Z,63.37
2022-08-19T19:32:39.165Z,63.24
2022-08-19T19:35:10.618Z,63.06
2022-08-19T19:37:38.269Z,62.83
2022-08-19T19:40:06.786Z,62.88
2022-08-19T19:42:35.045Z,62.80
2022-08-19T19:45:03.024Z,63.26
2022-08-19T19:47:31.007Z,63.20
2022-08-19T19:50:15.776Z,62.86
2022-08-19T19:52:46.639Z,62.92
2022-08-19T19:55:18.159Z,62.92
2022-08-19T19:57:46.360Z,63.41
2022-08-19T20:00:17.126Z,63.27
2022-08-19T20:02:49.623Z,62.88
2022-08-19T20:05:21.008Z,62.91
2022-08-19T20:08:07.790Z,63.07
2022-08-19T20:10:35.838Z,63.21
2022-08-19T20:13:04.631Z,63.24
2022-08-19T20:15:33.119Z,62.90
2022-08-19T20:18:02.281Z,63.27
2022-08-19T20:20:31.669Z,63.40
2022-08-19T20:23:00.737Z,63.33
2022-08-19T20:25:28.931Z,63.29
2022-08-19T20:27:56.869Z,63.57
2022-08-19T20:30:24.898Z,63.24
2022-08-19T20:32:52.862Z,63.16
2022-08-19T20:35:22.318Z,63.11
2022-08-19T20:37:52.881Z,63.41
2022-08-19T20:40:25.154Z,63.24
2022-08-19T20:42:52.838Z,63.22
2022-08-19T20:45:32.385Z,63.38
2022-08-19T20:48:02.650Z,63.55
2022-08-19T20:50:31.108Z,63.60
2022-08-19T20:52:59.287Z,63.50
2022-08-19T20:55:30.413Z,63.49
2022-08-19T20:57:58.683Z,63.46
2022-08-19T21:00:26.386Z,63.33
2022-08-19T21:02:54.081Z,63.61
2022-08-19T21:05:21.927Z,63.72
2022-08-19T21:07:49.649Z,63.72
2022-08-19T21:10:17.946Z,63.61
2022-08-19T21:12:46.995Z,63.45
2022-08-19T21:15:14.875Z,63.64
2022-08-19T21:17:42.543Z,63.45
2022-08-19T21:20:10.985Z,63.51
2022-08-19T21:22:38.826Z,63.75
2022-08-19T21:25:07.798Z,63.52
2022-08-19T21:27:35.539Z,63.93
2022-08-19T21:30:05.013Z,63.70
2022-08-19T21:32:32.760Z,64.05
2022-08-19T21:35:02.122Z,64.00
2022-08-19T21:37:33.458Z,64.08
2022-08-19T21:40:01.187Z,63.98
2022-08-19T21:42:28.991Z,64.06
2022-08-19T21:44:56.671Z,64.31
2022-08-19T21:47:25.694Z,64.08
2022-08-19T21:49:53.394Z,64.06
2022-08-19T21:52:23.205Z,64.22
2022-08-19T21:54:51.026Z,64.43
2022-08-19T21:57:18.882Z,64.47
2022-08-19T21:59:46.558Z,64.52
2022-08-19T22:02:20.312Z,64.20
2022-08-19T22:04:50.708Z,64.16
2022-08-19T22:07:18.982Z,64.43
2022-08-19T22:09:47.952Z,64.32
2022-08-19T22:12:23.941Z,64.32
2022-08-19T22:14:52.450Z,64.32
2022-08-19T22:17:20.970Z,64.49
2022-08-19T22:19:50.065Z,64.61
2022-08-19T22:22:22.191Z,64.76
2022-08-19T22:24:49.839Z,64.64
2022-08-19T22:27:17.877Z,64.68
2022-08-19T22:29:45.582Z,64.56
2022-08-19T22:32:26.725Z,64.41
2022-08-19T22:34:59.429Z,64.53
2022-08-19T22:37:28.823Z,64.42
2022-08-19T22:39:56.859Z,64.60
2022-08-19T22:42:31.813Z,64.72
2022-08-19T22:45:00.969Z,64.75
2022-08-19T22:47:32.083Z,64.60
2022-08-19T22:50:03.627Z,64.82
2022-08-19T22:52:31.683Z,64.89
2022-08-19T22:55:02.064Z,64.86
2022-08-19T22:57:29.871Z,64.85
2022-08-19T22:59:58.854Z,65.01
2022-08-19T23:02:31.810Z,64.93
2022-08-19T23:05:02.418Z,64.85
2022-08-19T23:07:31.878Z,64.91
2022-08-19T23:09:59.677Z,64.92
2022-08-19T23:12:30.619Z,65.08
2022-08-19T23:15:03.217Z,65.07
2022-08-19T23:17:30.930Z,64.93
2022-08-19T23:19:59.844Z,65.22
2022-08-19T23:22:29.315Z,65.26
2022-08-19T23:25:03.140Z,65.08
2022-08-19T23:27:48.445Z,65.18
2022-08-19T23:30:28.440Z,65.17
2022-08-19T23:32:57.544Z,65.10
2022-08-19T23:35:26.087Z,65.04
2022-08-19T23:37:53.932Z,65.06
2022-08-19T23:40:23.046Z,65.43
2022-08-19T23:42:51.626Z,65.08
2022-08-19T23:45:23.767Z,65.01
2022-08-19T23:47:53.956Z,65.10
2022-08-19T23:50:22.306Z,65.39
2022-08-19T23:52:52.988Z,65.27
2022-08-19T23:55:25.490Z,64.99
2022-08-19T23:57:53.784Z,65.27
